Slnc Moku Pahu — WBWK — position and weather

sailwx.info

Track history (hours):
 
Tides and Currents Weather Stations Pressure Air Temp Water Temp Dewpoint Dewpoint Depression Visibility Wind Speed Wind Dir Waves Ship Positions

Slnc Moku Pahu

Owner: American Ship Management, LLC., Concord, CA. More information available from US FCC via Universal Licensing System and Coast Guard Vessel Documentation Center.

Last reported at 2018-May-24 15:20 UTC. Time now 2018-May-25 03:30 UTC.
Position N 31°19' E 032°22'.

Type: Cargo ship. MMSI: 366857000.

Date/timePositionNaut miles runAvg speedWind from/ knotsBaromVisibWave heightAir tempDewpointWater temp
2018-May-24 15:20N 31°19' E 032°22'11 7.7
2018-May-24 13:52N 31°29' E 032°16'  
2018-May-18 10:58N 35°59' W 005°13'613.7
2018-May-18 10:30N 35°58' W 005°21'5 9.4
2018-May-18 10:00N 36°02' W 005°24'5 9.0
2018-May-18 09:25N 36°07' W 005°22'0 0.1
2018-May-18 08:18N 36°07' W 005°22'0 0.2
2018-May-18 07:00N 36°08' W 005°22'0 0.1
2018-May-18 05:48N 36°08' W 005°22'0 0.1
2018-May-18 05:30N 36°08' W 005°22'0 0.0
2018-May-18 05:00N 36°08' W 005°22'0 0.2
2018-May-18 04:30N 36°08' W 005°22'0 0.1
2018-May-18 04:00N 36°08' W 005°22'0 0.1
2018-May-18 03:30N 36°08' W 005°22'0 0.0
2018-May-18 03:00N 36°08' W 005°22'0 0.0
2018-May-18 02:30N 36°08' W 005°22'0 0.0
2018-May-18 02:00N 36°08' W 005°22'0 0.1
2018-May-18 01:30N 36°08' W 005°22'0 0.1
2018-May-18 01:00N 36°07' W 005°22'0 0.3
2018-May-18 00:30N 36°08' W 005°22'0 0.1
2018-May-18 00:00N 36°08' W 005°22'0 0.3
2018-May-17 23:30N 36°08' W 005°22'0 0.3
2018-May-17 23:00N 36°07' W 005°22'0 0.2
2018-May-17 22:24N 36°07' W 005°22'0 0.0
2018-May-17 22:00N 36°07' W 005°22'0 0.0
2018-May-17 21:30N 36°07' W 005°22'0 0.1
2018-May-17 20:54N 36°07' W 005°22'0 0.1
2018-May-17 19:09N 36°07' W 005°22'0 0.4
2018-May-17 18:54N 36°08' W 005°22'0 0.2
2018-May-17 18:27N 36°08' W 005°22'0 0.1
2018-May-17 17:42N 36°08' W 005°22'0 0.0
2018-May-17 15:00N 36°08' W 005°22'0 0.1
2018-May-17 14:30N 36°08' W 005°22'0 0.1
2018-May-17 13:57N 36°08' W 005°22'0 0.1
2018-May-17 13:30N 36°08' W 005°22'0 0.0
2018-May-17 13:00N 36°08' W 005°22'0 0.1
2018-May-17 12:30N 36°08' W 005°22'0 0.3
2018-May-17 12:00N 36°07' W 005°22'0 0.1
2018-May-17 11:24N 36°07' W 005°22'0 0.1
2018-May-17 11:00N 36°07' W 005°22'0 0.2
2018-May-17 10:30N 36°07' W 005°22'0 0.0
2018-May-17 09:59N 36°07' W 005°22'0 0.0
2018-May-17 09:30N 36°07' W 005°22'0 0.0
2018-May-17 09:00N 36°07' W 005°22'0 0.0
2018-May-17 08:30N 36°07' W 005°22'0 0.0
2018-May-17 08:00N 36°07' W 005°22'0 0.2
2018-May-17 07:30N 36°07' W 005°22'2 4.9
2018-May-17 07:00N 36°05' W 005°21'611.0
2018-May-17 06:30N 36°03' W 005°15'3 6.9
2018-May-17 06:00N 35°59' W 005°15'5 9.3
2018-May-17 05:30N 35°59' W 005°21'4 7.0
2018-May-17 05:00N 35°58' W 005°25'510.2
2018-May-17 04:30N 35°56' W 005°31'713.0
2018-May-17 03:58N 35°55' W 005°39'1212.9
2018-May-17 03:01N 35°55' W 005°54'013.3
2018-May-17 03:00N 35°55' W 005°55'30711.4
2018-May-16 00:02N 36°02' W 012°14'111.6
2018-May-15 23:59N 36°02' W 012°15'711.9
2018-May-15 23:25N 36°03' W 012°23'2811.9
2018-May-15 21:03N 36°11' W 012°57'611.8
2018-May-15 20:31N 36°12' W 013°04'011.5
2018-May-15 20:30N 36°13' W 013°04'711.8
2018-May-15 19:53N 36°15' W 013°13'  
Track history (hours):
 
Tides and Currents Weather Stations Pressure Air Temp Water Temp Dewpoint Dewpoint Depression Visibility Wind Speed Wind Dir Waves Ship Positions

Slnc Moku Pahu

Owner: American Ship Management, LLC., Concord, CA. More information available from US FCC via Universal Licensing System and Coast Guard Vessel Documentation Center.

Last reported at 2018-May-24 15:20 UTC. Time now 2018-May-25 03:30 UTC.
Position N 31°19' E 032°22'.

Type: Cargo ship. MMSI: 366857000.

Date/timePositionNaut miles runAvg speedWind from/ knotsBaromVisibWave heightAir tempDewpointWater temp
2018-May-24 15:20N 31°19' E 032°22'11 7.7
2018-May-24 13:52N 31°29' E 032°16'  
2018-May-18 10:58N 35°59' W 005°13'613.7
2018-May-18 10:30N 35°58' W 005°21'5 9.4
2018-May-18 10:00N 36°02' W 005°24'5 9.0
2018-May-18 09:25N 36°07' W 005°22'0 0.1
2018-May-18 08:18N 36°07' W 005°22'0 0.2
2018-May-18 07:00N 36°08' W 005°22'0 0.1
2018-May-18 05:48N 36°08' W 005°22'0 0.1
2018-May-18 05:30N 36°08' W 005°22'0 0.0
2018-May-18 05:00N 36°08' W 005°22'0 0.2
2018-May-18 04:30N 36°08' W 005°22'0 0.1
2018-May-18 04:00N 36°08' W 005°22'0 0.1
2018-May-18 03:30N 36°08' W 005°22'0 0.0
2018-May-18 03:00N 36°08' W 005°22'0 0.0
2018-May-18 02:30N 36°08' W 005°22'0 0.0
2018-May-18 02:00N 36°08' W 005°22'0 0.1
2018-May-18 01:30N 36°08' W 005°22'0 0.1
2018-May-18 01:00N 36°07' W 005°22'0 0.3
2018-May-18 00:30N 36°08' W 005°22'0 0.1
2018-May-18 00:00N 36°08' W 005°22'0 0.3
2018-May-17 23:30N 36°08' W 005°22'0 0.3
2018-May-17 23:00N 36°07' W 005°22'0 0.2
2018-May-17 22:24N 36°07' W 005°22'0 0.0
2018-May-17 22:00N 36°07' W 005°22'0 0.0
2018-May-17 21:30N 36°07' W 005°22'0 0.1
2018-May-17 20:54N 36°07' W 005°22'0 0.1
2018-May-17 19:09N 36°07' W 005°22'0 0.4
2018-May-17 18:54N 36°08' W 005°22'0 0.2
2018-May-17 18:27N 36°08' W 005°22'0 0.1
2018-May-17 17:42N 36°08' W 005°22'0 0.0
2018-May-17 15:00N 36°08' W 005°22'0 0.1
2018-May-17 14:30N 36°08' W 005°22'0 0.1
2018-May-17 13:57N 36°08' W 005°22'0 0.1
2018-May-17 13:30N 36°08' W 005°22'0 0.0
2018-May-17 13:00N 36°08' W 005°22'0 0.1
2018-May-17 12:30N 36°08' W 005°22'0 0.3
2018-May-17 12:00N 36°07' W 005°22'0 0.1
2018-May-17 11:24N 36°07' W 005°22'0 0.1
2018-May-17 11:00N 36°07' W 005°22'0 0.2
2018-May-17 10:30N 36°07' W 005°22'0 0.0
2018-May-17 09:59N 36°07' W 005°22'0 0.0
2018-May-17 09:30N 36°07' W 005°22'0 0.0
2018-May-17 09:00N 36°07' W 005°22'0 0.0
2018-May-17 08:30N 36°07' W 005°22'0 0.0
2018-May-17 08:00N 36°07' W 005°22'0 0.2
2018-May-17 07:30N 36°07' W 005°22'2 4.9
2018-May-17 07:00N 36°05' W 005°21'611.0
2018-May-17 06:30N 36°03' W 005°15'3 6.9
2018-May-17 06:00N 35°59' W 005°15'5 9.3
2018-May-17 05:30N 35°59' W 005°21'4 7.0
2018-May-17 05:00N 35°58' W 005°25'510.2
2018-May-17 04:30N 35°56' W 005°31'713.0
2018-May-17 03:58N 35°55' W 005°39'1212.9
2018-May-17 03:01N 35°55' W 005°54'013.3
2018-May-17 03:00N 35°55' W 005°55'30711.4
2018-May-16 00:02N 36°02' W 012°14'111.6
2018-May-15 23:59N 36°02' W 012°15'711.9
2018-May-15 23:25N 36°03' W 012°23'2811.9
2018-May-15 21:03N 36°11' W 012°57'611.8
2018-May-15 20:31N 36°12' W 013°04'011.5
2018-May-15 20:30N 36°13' W 013°04'711.8
2018-May-15 19:53N 36°15' W 013°13'  

Dump ship's entire track history